createdAt,value
2023-04-25T00:01:37.151Z,10.47
2023-04-25T00:04:03.958Z,10.45
2023-04-25T00:06:30.704Z,10.36
2023-04-25T00:08:57.664Z,10.36
2023-04-25T00:11:24.802Z,10.13
2023-04-25T00:13:55.325Z,10.25
2023-04-25T00:16:21.880Z,10.32
2023-04-25T00:18:52.181Z,10.17
2023-04-25T00:21:20.680Z,10.18
2023-04-25T00:23:47.803Z,10.04
2023-04-25T00:26:14.355Z,10.12
2023-04-25T00:28:41.647Z,10.20
2023-04-25T00:31:08.355Z,10.21
2023-04-25T00:33:34.882Z,10.25
2023-04-25T00:36:01.601Z,10.08
2023-04-25T00:38:28.017Z,9.88
2023-04-25T00:40:56.499Z,10.03
2023-04-25T00:43:22.859Z,9.98
2023-04-25T00:45:51.589Z,10.10
2023-04-25T00:48:18.433Z,10.16
2023-04-25T00:50:52.842Z,10.16
2023-04-25T00:53:19.568Z,10.15
2023-04-25T00:55:46.386Z,10.08
2023-04-25T00:58:12.803Z,10.15
2023-04-25T01:00:41.091Z,9.97
2023-04-25T01:03:07.801Z,10.04
2023-04-25T01:05:34.490Z,10.04
2023-04-25T01:08:00.989Z,10.01
2023-04-25T01:10:27.524Z,9.96
2023-04-25T01:12:54.229Z,9.81
2023-04-25T01:15:21.124Z,9.95
2023-04-25T01:17:48.035Z,9.82
2023-04-25T01:20:15.036Z,9.98
2023-04-25T01:22:41.606Z,9.86
2023-04-25T01:25:08.614Z,9.88
2023-04-25T01:27:36.585Z,9.87
2023-04-25T01:30:04.267Z,9.89
2023-04-25T01:32:39.078Z,9.75
2023-04-25T01:35:10.604Z,9.80
2023-04-25T01:37:41.184Z,9.88
2023-04-25T01:40:09.731Z,9.82
2023-04-25T01:42:38.155Z,9.97
2023-04-25T01:45:05.285Z,9.94
2023-04-25T01:47:33.072Z,9.93
2023-04-25T01:49:59.668Z,10.01
2023-04-25T01:52:26.098Z,10.04
2023-04-25T01:54:53.643Z,9.92
2023-04-25T01:57:20.794Z,9.95
2023-04-25T01:59:47.465Z,9.81
2023-04-25T02:02:13.886Z,9.83
2023-04-25T02:04:40.563Z,9.89
2023-04-25T02:07:07.127Z,9.95
2023-04-25T02:09:33.556Z,9.73
2023-04-25T02:11:59.967Z,9.79
2023-04-25T02:14:26.481Z,9.80
2023-04-25T02:16:53.499Z,9.83
2023-04-25T02:19:19.935Z,9.87
2023-04-25T02:21:46.584Z,9.88
2023-04-25T02:24:13.047Z,9.86
2023-04-25T02:26:39.455Z,9.85
2023-04-25T02:29:06.690Z,9.67
2023-04-25T02:31:33.149Z,9.86
2023-04-25T02:33:59.547Z,9.84
2023-04-25T02:36:27.244Z,9.78
2023-04-25T02:38:53.673Z,9.54
2023-04-25T02:41:21.733Z,9.78
2023-04-25T02:43:48.380Z,9.83
2023-04-25T02:46:16.453Z,9.84
2023-04-25T02:48:45.671Z,9.74
2023-04-25T02:51:12.195Z,9.69
2023-04-25T02:53:38.571Z,9.79
2023-04-25T02:56:05.331Z,9.76
2023-04-25T02:58:31.858Z,9.81
2023-04-25T03:00:58.277Z,9.73
2023-04-25T03:03:24.972Z,9.77
2023-04-25T03:05:52.509Z,9.72
2023-04-25T03:08:19.698Z,9.76
2023-04-25T03:10:46.647Z,9.68
2023-04-25T03:13:13.096Z,9.78
2023-04-25T03:15:39.877Z,9.75
2023-04-25T03:18:06.693Z,9.76
2023-04-25T03:20:33.202Z,9.65
2023-04-25T03:22:59.820Z,9.70
2023-04-25T03:25:26.463Z,9.70
2023-04-25T03:27:53.004Z,9.60
2023-04-25T03:30:19.476Z,9.58
2023-04-25T03:32:45.946Z,9.67
2023-04-25T03:35:12.438Z,9.61
2023-04-25T03:37:38.879Z,9.62
2023-04-25T03:40:05.942Z,9.64
2023-04-25T03:42:32.405Z,9.56
2023-04-25T03:44:58.795Z,9.60
2023-04-25T03:47:25.550Z,9.44
2023-04-25T03:49:52.798Z,9.31
2023-04-25T03:52:19.434Z,9.40
2023-04-25T03:54:45.924Z,9.51
2023-04-25T03:57:12.313Z,9.58
2023-04-25T03:59:38.712Z,9.60
2023-04-25T04:02:05.294Z,9.60
2023-04-25T04:04:32.058Z,9.60
2023-04-25T04:06:58.548Z,9.62
2023-04-25T04:09:25.056Z,9.61
2023-04-25T04:11:51.485Z,9.56
2023-04-25T04:14:17.883Z,9.78
2023-04-25T04:16:44.337Z,9.63
2023-04-25T04:19:10.778Z,9.82
2023-04-25T04:21:37.253Z,9.70
2023-04-25T04:24:04.297Z,9.65
2023-04-25T04:26:32.891Z,9.51
2023-04-25T04:29:00.257Z,9.68
2023-04-25T04:31:26.731Z,9.74
2023-04-25T04:33:53.490Z,9.69
2023-04-25T04:36:23.924Z,9.58
2023-04-25T04:38:50.295Z,9.65
2023-04-25T04:41:17.187Z,9.71
2023-04-25T04:43:44.270Z,9.43
2023-04-25T04:46:11.308Z,9.58
2023-04-25T04:48:38.128Z,9.70
2023-04-25T04:51:04.548Z,9.69
2023-04-25T04:53:30.926Z,9.42
2023-04-25T04:55:57.356Z,9.45
2023-04-25T04:58:24.040Z,9.41
2023-04-25T05:00:50.822Z,9.19
2023-04-25T05:03:17.469Z,9.28
2023-04-25T05:05:44.221Z,9.38
2023-04-25T05:08:10.774Z,9.48
2023-04-25T05:10:37.188Z,9.48
2023-04-25T05:13:03.812Z,9.42
2023-04-25T05:15:30.696Z,9.36
2023-04-25T05:17:57.261Z,9.26
2023-04-25T05:20:23.916Z,9.30
2023-04-25T05:22:50.367Z,9.31
2023-04-25T05:25:16.915Z,9.38
2023-04-25T05:27:43.322Z,9.35
2023-04-25T05:30:10.512Z,8.98
2023-04-25T05:32:37.564Z,9.11
2023-04-25T05:35:04.342Z,9.11
2023-04-25T05:37:32.090Z,9.29
2023-04-25T05:39:58.605Z,9.13
2023-04-25T05:42:25.053Z,9.11
2023-04-25T05:44:51.463Z,8.99
2023-04-25T05:47:17.953Z,9.02
2023-04-25T05:49:44.396Z,8.94
2023-04-25T05:52:10.829Z,8.71
2023-04-25T05:54:37.305Z,8.88
2023-04-25T05:57:03.725Z,8.84
2023-04-25T05:59:30.135Z,8.88
2023-04-25T06:01:56.567Z,9.02
2023-04-25T06:04:23.295Z,9.02
2023-04-25T06:06:49.928Z,9.09
2023-04-25T06:09:16.457Z,8.95
2023-04-25T06:11:42.993Z,9.18
2023-04-25T06:14:09.458Z,9.07
2023-04-25T06:16:36.032Z,9.08
2023-04-25T06:19:02.499Z,9.19
2023-04-25T06:21:28.945Z,9.32
2023-04-25T06:23:55.414Z,9.35
2023-04-25T06:26:21.814Z,9.58
2023-04-25T06:28:48.268Z,9.55
2023-04-25T06:31:14.840Z,9.43
2023-04-25T06:33:41.261Z,9.51
2023-04-25T06:36:07.908Z,9.64
2023-04-25T06:38:35.742Z,9.67
2023-04-25T06:41:02.171Z,9.78
2023-04-25T06:43:28.647Z,9.41
2023-04-25T06:45:55.199Z,9.63
2023-04-25T06:48:21.584Z,9.66
2023-04-25T06:50:48.051Z,9.15
2023-04-25T06:53:14.491Z,9.56
2023-04-25T06:55:41.293Z,9.30
2023-04-25T06:58:08.159Z,9.42
2023-04-25T07:00:34.747Z,9.30
2023-04-25T07:03:01.674Z,9.59
2023-04-25T07:05:28.263Z,9.40
2023-04-25T07:07:54.700Z,9.22
2023-04-25T07:10:22.293Z,9.37
2023-04-25T07:12:48.696Z,9.32
2023-04-25T07:15:15.271Z,9.29
2023-04-25T07:17:41.704Z,9.19
2023-04-25T07:20:10.083Z,9.28
2023-04-25T07:22:36.703Z,9.24
2023-04-25T07:25:03.743Z,9.00
2023-04-25T07:27:30.427Z,9.34
2023-04-25T07:29:57.371Z,8.99
2023-04-25T07:32:24.631Z,9.30
2023-04-25T07:34:52.084Z,9.09
2023-04-25T07:37:19.760Z,9.01
2023-04-25T07:39:49.375Z,9.24
2023-04-25T07:42:15.869Z,9.33
2023-04-25T07:44:43.283Z,9.42
2023-04-25T07:47:10.564Z,9.47
2023-04-25T07:49:37.825Z,9.58
2023-04-25T07:52:06.966Z,9.44
2023-04-25T07:54:33.622Z,9.72
2023-04-25T07:57:00.630Z,9.68
2023-04-25T07:59:29.323Z,9.42
2023-04-25T08:01:58.184Z,9.72
2023-04-25T08:04:25.117Z,9.69
2023-04-25T08:06:51.741Z,10.02
2023-04-25T08:09:18.214Z,10.01
2023-04-25T08:11:44.825Z,9.98
2023-04-25T08:14:12.507Z,10.08
2023-04-25T08:16:39.119Z,9.96
2023-04-25T08:19:05.947Z,10.09
2023-04-25T08:21:32.612Z,10.28
2023-04-25T08:23:59.410Z,10.11
2023-04-25T08:26:26.506Z,10.33
2023-04-25T08:28:53.393Z,10.46
2023-04-25T08:31:19.982Z,10.63
2023-04-25T08:33:46.615Z,10.74
2023-04-25T08:36:13.199Z,10.86
2023-04-25T08:38:40.976Z,11.02
2023-04-25T08:41:07.554Z,11.03
2023-04-25T08:43:36.063Z,11.22
2023-04-25T08:46:02.659Z,11.27
2023-04-25T08:48:29.837Z,11.33
2023-04-25T08:50:57.562Z,11.45
2023-04-25T08:53:31.952Z,11.44
2023-04-25T08:56:00.410Z,11.68
2023-04-25T08:58:28.302Z,11.62
2023-04-25T09:00:54.791Z,11.61
2023-04-25T09:03:21.700Z,11.35
2023-04-25T09:05:48.301Z,11.39
2023-04-25T09:08:14.760Z,11.45
2023-04-25T09:10:41.389Z,11.29
2023-04-25T09:13:16.068Z,10.98
2023-04-25T09:15:50.037Z,11.14
2023-04-25T09:18:30.243Z,11.31
2023-04-25T09:21:12.593Z,11.48
2023-04-25T09:23:43.130Z,11.01
2023-04-25T09:26:10.486Z,11.38
2023-04-25T09:28:38.767Z,10.83
2023-04-25T09:31:05.430Z,10.19
2023-04-25T09:33:33.715Z,10.71
2023-04-25T09:36:04.406Z,10.95
2023-04-25T09:38:32.656Z,10.92
2023-04-25T09:40:59.290Z,11.07
2023-04-25T09:43:26.389Z,11.17
2023-04-25T09:45:58.755Z,10.12
2023-04-25T09:48:26.928Z,10.76
2023-04-25T09:51:11.407Z,10.75
2023-04-25T09:53:42.767Z,10.76
2023-04-25T09:56:11.394Z,10.81
2023-04-25T09:58:39.704Z,10.77
2023-04-25T10:01:08.678Z,10.86
2023-04-25T10:03:41.072Z,10.72
2023-04-25T10:06:15.360Z,10.71
2023-04-25T10:08:42.890Z,10.70
2023-04-25T10:11:09.884Z,10.76
2023-04-25T10:13:37.164Z,10.61
2023-04-25T10:16:05.828Z,10.63
2023-04-25T10:18:33.375Z,10.73
2023-04-25T10:21:04.164Z,10.99
2023-04-25T10:23:32.408Z,11.00
2023-04-25T10:25:59.788Z,10.35
2023-04-25T10:28:26.424Z,10.48
2023-04-25T10:30:59.658Z,10.85
2023-04-25T10:33:41.853Z,10.75
2023-04-25T10:36:13.254Z,11.02
2023-04-25T10:38:40.776Z,10.41
2023-04-25T10:41:09.871Z,10.66
2023-04-25T10:43:47.459Z,10.62
2023-04-25T10:46:17.945Z,10.74
2023-04-25T10:48:51.441Z,10.82
2023-04-25T10:51:23.561Z,10.79
2023-04-25T10:54:09.622Z,11.02
2023-04-25T10:56:41.663Z,11.06
2023-04-25T10:59:16.753Z,11.29
2023-04-25T11:01:45.259Z,11.22
2023-04-25T11:04:32.976Z,11.42
2023-04-25T11:07:07.480Z,11.39
2023-04-25T11:09:35.707Z,11.15
2023-04-25T11:12:02.293Z,11.21
2023-04-25T11:14:29.033Z,11.31
2023-04-25T11:17:00.660Z,10.88
2023-04-25T11:19:28.330Z,11.17
2023-04-25T11:22:01.926Z,11.11
2023-04-25T11:24:29.106Z,11.18
2023-04-25T11:26:56.041Z,11.20
2023-04-25T11:29:29.868Z,10.88
2023-04-25T11:31:58.918Z,11.09
2023-04-25T11:34:27.031Z,11.21
2023-04-25T11:36:54.182Z,11.17
2023-04-25T11:39:21.603Z,10.89
2023-04-25T11:41:48.316Z,10.69
2023-04-25T11:44:19.329Z,10.96
2023-04-25T11:46:46.340Z,10.68
2023-04-25T11:49:13.559Z,10.77
2023-04-25T11:51:44.253Z,10.40
2023-04-25T11:54:11.464Z,10.68
2023-04-25T11:56:38.004Z,10.34
2023-04-25T11:59:07.744Z,10.54
2023-04-25T12:01:39.470Z,10.50
2023-04-25T12:04:17.219Z,10.49
2023-04-25T12:06:48.452Z,10.63
2023-04-25T12:09:19.576Z,10.14
2023-04-25T12:11:53.430Z,10.37
2023-04-25T12:14:31.766Z,10.37
2023-04-25T12:17:04.762Z,10.77
2023-04-25T12:19:35.988Z,10.75
2023-04-25T12:22:06.533Z,10.93
2023-04-25T12:24:38.762Z,10.73
2023-04-25T12:27:08.939Z,10.74
2023-04-25T12:29:48.700Z,10.63
2023-04-25T12:32:16.842Z,10.57
2023-04-25T12:34:43.356Z,10.70
2023-04-25T12:37:10.317Z,10.74
2023-04-25T12:39:36.789Z,10.61
2023-04-25T12:42:04.516Z,10.66
2023-04-25T12:44:31.773Z,10.44
2023-04-25T12:46:58.273Z,10.44
2023-04-25T12:49:24.795Z,10.37
2023-04-25T12:51:52.477Z,10.47
2023-04-25T12:54:18.921Z,10.35
2023-04-25T12:56:45.363Z,10.46
2023-04-25T12:59:11.850Z,10.51
2023-04-25T13:01:38.601Z,10.46
2023-04-25T13:04:05.536Z,10.34
2023-04-25T13:06:32.274Z,10.17
2023-04-25T13:08:58.719Z,10.45
2023-04-25T13:11:25.520Z,10.50
2023-04-25T13:13:52.119Z,10.69
2023-04-25T13:16:21.747Z,10.67
2023-04-25T13:18:48.583Z,10.89
2023-04-25T13:21:15.205Z,10.66
2023-04-25T13:23:43.649Z,10.62
2023-04-25T13:26:10.169Z,10.73
2023-04-25T13:28:36.556Z,10.62
2023-04-25T13:31:03.018Z,10.65
2023-04-25T13:33:29.900Z,10.70
2023-04-25T13:35:57.961Z,10.64
2023-04-25T13:38:26.451Z,10.82
2023-04-25T13:40:53.663Z,10.67
2023-04-25T13:43:23.436Z,10.77
2023-04-25T13:45:51.238Z,11.04
2023-04-25T13:48:18.699Z,11.09
2023-04-25T13:50:45.224Z,11.01
2023-04-25T13:53:11.624Z,11.18
2023-04-25T13:55:38.432Z,11.18
2023-04-25T13:58:08.557Z,11.09
2023-04-25T14:00:38.834Z,11.03
2023-04-25T14:03:08.163Z,10.37
2023-04-25T14:05:39.929Z,10.48
2023-04-25T14:08:08.190Z,10.70
2023-04-25T14:10:36.201Z,10.74
2023-04-25T14:13:04.243Z,11.10
2023-04-25T14:15:32.824Z,11.20
2023-04-25T14:18:00.777Z,11.19
2023-04-25T14:20:27.922Z,10.48
2023-04-25T14:22:55.554Z,10.75
2023-04-25T14:25:22.316Z,11.15
2023-04-25T14:27:50.888Z,10.77
2023-04-25T14:30:19.147Z,10.93
2023-04-25T14:32:46.366Z,10.75
2023-04-25T14:35:13.020Z,10.78
2023-04-25T14:37:40.199Z,10.84
2023-04-25T14:40:09.676Z,10.52
2023-04-25T14:42:36.428Z,10.72
2023-04-25T14:45:04.648Z,10.56
2023-04-25T14:47:31.240Z,10.51
2023-04-25T14:49:57.717Z,10.54
2023-04-25T14:52:24.828Z,10.57
2023-04-25T14:54:51.894Z,10.41
2023-04-25T14:57:18.369Z,10.41
2023-04-25T14:59:44.808Z,10.39
2023-04-25T15:02:11.640Z,10.36
2023-04-25T15:04:38.324Z,10.47
2023-04-25T15:07:05.020Z,10.39
2023-04-25T15:09:31.655Z,10.23
2023-04-25T15:11:58.594Z,10.08
2023-04-25T15:14:25.243Z,10.07
2023-04-25T15:16:51.751Z,10.08
2023-04-25T15:19:18.226Z,10.17
2023-04-25T15:21:44.704Z,10.20
2023-04-25T15:24:11.991Z,10.46
2023-04-25T15:26:38.470Z,10.32
2023-04-25T15:29:06.820Z,10.45
2023-04-25T15:31:33.404Z,10.42
2023-04-25T15:33:59.917Z,10.30
2023-04-25T15:36:26.629Z,10.39
2023-04-25T15:38:53.212Z,10.13
2023-04-25T15:41:19.747Z,10.08
2023-04-25T15:43:49.103Z,10.17
2023-04-25T15:46:15.982Z,10.14
2023-04-25T15:48:42.504Z,10.21
2023-04-25T15:51:09.722Z,10.24
2023-04-25T15:53:36.384Z,10.27
2023-04-25T15:56:04.505Z,10.32
2023-04-25T15:58:30.906Z,10.25
2023-04-25T16:00:57.475Z,10.17
2023-04-25T16:03:24.158Z,10.19
2023-04-25T16:05:50.819Z,10.40
2023-04-25T16:08:17.215Z,10.26
2023-04-25T16:10:43.644Z,10.42
2023-04-25T16:13:10.104Z,10.46
2023-04-25T16:15:36.888Z,10.29
2023-04-25T16:18:04.060Z,10.49
2023-04-25T16:20:30.610Z,10.59
2023-04-25T16:22:57.023Z,10.33
2023-04-25T16:25:23.674Z,10.61
2023-04-25T16:27:50.317Z,10.57
2023-04-25T16:30:17.097Z,10.43
2023-04-25T16:32:45.398Z,10.29
2023-04-25T16:35:12.405Z,10.28
2023-04-25T16:37:38.894Z,10.09
2023-04-25T16:40:08.909Z,10.22
2023-04-25T16:42:36.275Z,10.40
2023-04-25T16:45:04.914Z,10.03
2023-04-25T16:47:31.900Z,10.04
2023-04-25T16:50:01.122Z,9.53
2023-04-25T16:52:27.618Z,9.16
2023-04-25T16:54:54.040Z,9.79
2023-04-25T16:57:21.063Z,10.02
2023-04-25T16:59:47.598Z,10.12
2023-04-25T17:02:15.243Z,10.14
2023-04-25T17:04:41.982Z,10.08
2023-04-25T17:07:09.274Z,10.23
2023-04-25T17:09:36.304Z,10.10
2023-04-25T17:12:03.964Z,10.06
2023-04-25T17:14:32.249Z,10.16
2023-04-25T17:16:58.790Z,10.11
2023-04-25T17:19:26.010Z,10.12
2023-04-25T17:21:52.570Z,10.09
2023-04-25T17:24:21.118Z,10.11
2023-04-25T17:26:48.867Z,10.27
2023-04-25T17:29:15.802Z,10.21
2023-04-25T17:31:42.718Z,10.25
2023-04-25T17:34:09.774Z,10.13
2023-04-25T17:36:36.439Z,10.23
2023-04-25T17:39:06.140Z,10.12
2023-04-25T17:41:32.607Z,9.97
2023-04-25T17:43:59.081Z,9.97
2023-04-25T17:46:27.435Z,9.94
2023-04-25T17:48:54.373Z,9.89
2023-04-25T17:51:21.375Z,9.98
2023-04-25T17:53:47.998Z,9.63
2023-04-25T17:56:25.991Z,9.83
2023-04-25T17:58:53.685Z,9.61
2023-04-25T18:01:20.519Z,9.54
2023-04-25T18:03:49.213Z,9.53
2023-04-25T18:06:17.052Z,9.12
2023-04-25T18:08:44.628Z,9.19
2023-04-25T18:11:11.847Z,8.96
2023-04-25T18:13:38.692Z,9.14
2023-04-25T18:16:05.463Z,9.32
2023-04-25T18:18:34.237Z,9.26
2023-04-25T18:21:03.802Z,9.43
2023-04-25T18:23:32.325Z,9.45
2023-04-25T18:25:58.725Z,9.33
2023-04-25T18:28:25.330Z,9.28
2023-04-25T18:30:51.767Z,9.17
2023-04-25T18:33:18.264Z,9.30
2023-04-25T18:35:55.388Z,9.27
2023-04-25T18:38:35.595Z,9.19
2023-04-25T18:41:13.062Z,9.20
2023-04-25T18:43:49.592Z,9.09
2023-04-25T18:46:17.455Z,9.10
2023-04-25T18:48:43.983Z,8.94
2023-04-25T18:51:10.622Z,9.09
2023-04-25T18:53:37.426Z,8.98
2023-04-25T18:56:04.588Z,8.89
2023-04-25T18:58:31.237Z,8.90
2023-04-25T19:00:57.706Z,8.55
2023-04-25T19:03:24.405Z,8.71
2023-04-25T19:05:51.037Z,8.66
2023-04-25T19:08:17.809Z,8.74
2023-04-25T19:10:44.551Z,8.72
2023-04-25T19:13:11.078Z,8.73
2023-04-25T19:15:37.921Z,8.73
2023-04-25T19:18:04.777Z,8.69
2023-04-25T19:20:33.626Z,8.66
2023-04-25T19:23:00.076Z,8.65
2023-04-25T19:25:26.916Z,8.74
2023-04-25T19:27:53.458Z,8.68
2023-04-25T19:30:20.076Z,8.71
2023-04-25T19:32:46.583Z,8.66
2023-04-25T19:35:13.402Z,8.73
2023-04-25T19:37:45.823Z,8.76
2023-04-25T19:40:17.533Z,8.85
2023-04-25T19:42:44.463Z,8.56
2023-04-25T19:45:12.135Z,8.68
2023-04-25T19:47:38.724Z,8.44
2023-04-25T19:50:09.643Z,8.55
2023-04-25T19:52:39.909Z,8.72
2023-04-25T19:55:07.259Z,8.66
2023-04-25T19:57:38.089Z,8.60
2023-04-25T20:00:08.961Z,8.52
2023-04-25T20:02:35.680Z,8.52
2023-04-25T20:05:03.381Z,8.45
2023-04-25T20:07:29.888Z,8.37
2023-04-25T20:09:56.542Z,8.34
2023-04-25T20:12:23.028Z,8.40
2023-04-25T20:14:49.546Z,8.35
2023-04-25T20:17:16.037Z,8.14
2023-04-25T20:19:42.455Z,8.23
2023-04-25T20:22:08.915Z,7.79
2023-04-25T20:24:35.284Z,8.09
2023-04-25T20:27:02.811Z,8.12
2023-04-25T20:29:29.250Z,8.19
2023-04-25T20:31:55.868Z,8.23
2023-04-25T20:34:22.737Z,7.81
2023-04-25T20:36:49.237Z,7.65
2023-04-25T20:39:15.682Z,8.06
2023-04-25T20:41:42.600Z,8.10
2023-04-25T20:44:09.660Z,7.98
2023-04-25T20:46:36.229Z,8.20
2023-04-25T20:49:05.010Z,8.11
2023-04-25T20:51:32.731Z,8.12
2023-04-25T20:54:00.141Z,8.04
2023-04-25T20:56:26.720Z,8.08
2023-04-25T20:58:53.872Z,8.00
2023-04-25T21:01:20.652Z,8.01
2023-04-25T21:03:50.081Z,8.13
2023-04-25T21:06:16.871Z,8.16
2023-04-25T21:08:43.722Z,7.87
2023-04-25T21:11:11.051Z,7.55
2023-04-25T21:13:37.549Z,7.85
2023-04-25T21:16:04.622Z,7.31
2023-04-25T21:18:31.894Z,7.33
2023-04-25T21:20:58.854Z,7.79
2023-04-25T21:23:25.266Z,7.46
2023-04-25T21:25:53.361Z,7.84
2023-04-25T21:28:20.806Z,7.61
2023-04-25T21:30:47.435Z,7.58
2023-04-25T21:33:14.173Z,7.71
2023-04-25T21:35:40.720Z,7.52
2023-04-25T21:38:07.776Z,7.63
2023-04-25T21:40:35.076Z,7.62
2023-04-25T21:43:02.086Z,7.47
2023-04-25T21:45:29.183Z,7.43
2023-04-25T21:47:55.760Z,7.59
2023-04-25T21:50:22.330Z,7.46
2023-04-25T21:52:48.778Z,7.43
2023-04-25T21:55:16.393Z,7.36
2023-04-25T21:57:43.281Z,7.55
2023-04-25T22:00:20.980Z,7.43
2023-04-25T22:02:51.556Z,7.49
2023-04-25T22:05:21.020Z,7.45
2023-04-25T22:07:51.099Z,7.43
2023-04-25T22:10:18.361Z,7.48
2023-04-25T22:12:45.004Z,7.30
2023-04-25T22:15:14.574Z,7.35
2023-04-25T22:17:41.005Z,7.20
2023-04-25T22:20:13.489Z,7.17
2023-04-25T22:22:44.197Z,6.84
2023-04-25T22:25:12.436Z,6.93
2023-04-25T22:27:43.572Z,6.85
2023-04-25T22:30:14.354Z,6.79
2023-04-25T22:32:41.556Z,6.94
2023-04-25T22:35:09.025Z,6.91
2023-04-25T22:37:35.912Z,6.66
2023-04-25T22:40:07.106Z,6.76
2023-04-25T22:42:40.656Z,6.55
2023-04-25T22:45:08.234Z,6.60
2023-04-25T22:47:39.342Z,6.64
2023-04-25T22:50:07.774Z,6.60
2023-04-25T22:52:34.703Z,6.57
2023-04-25T22:55:04.372Z,6.55
2023-04-25T22:57:31.280Z,6.50
2023-04-25T22:59:57.803Z,6.17
2023-04-25T23:02:27.625Z,6.24
2023-04-25T23:04:54.828Z,6.15
2023-04-25T23:07:21.435Z,6.11
2023-04-25T23:09:47.868Z,6.03
2023-04-25T23:12:17.771Z,5.97
2023-04-25T23:14:44.196Z,6.08
2023-04-25T23:17:11.411Z,6.11
2023-04-25T23:19:38.311Z,6.04
2023-04-25T23:22:05.794Z,6.09
2023-04-25T23:24:37.548Z,6.00
2023-04-25T23:27:04.037Z,5.93
2023-04-25T23:29:33.168Z,6.10
2023-04-25T23:32:01.493Z,6.09
2023-04-25T23:34:31.671Z,5.99
2023-04-25T23:37:01.118Z,6.03
2023-04-25T23:39:28.272Z,6.01
2023-04-25T23:41:54.928Z,5.99
2023-04-25T23:44:22.152Z,5.92
2023-04-25T23:46:48.756Z,6.02
2023-04-25T23:49:15.487Z,5.95
2023-04-25T23:51:41.894Z,5.92
2023-04-25T23:54:08.322Z,5.94
2023-04-25T23:56:34.751Z,5.81
2023-04-25T23:59:01.198Z,5.77
